Time;durP1;ratioP1;P1;durP2;ratioP2;P2;SDS_P1;SDS_P2;PMS_P1;PMS_P2;Temp;Humidity;BMP_temperature;BMP_pressure;BME280_temperature;BME280_humidity;BME280_pressure;Samples;Min_cycle;Max_cycle;Signal;HPM_P1;HPM_P2
2022/06/05 00:02:30;;;;;;;;;12.25;12.00;;;;;18.74;74.37;100510.22;5057398;28;45378;-74
2022/06/05 00:05:08;;;;;;;;;13.67;13.33;;;;;18.72;74.47;100499.66;5057638;28;45522;-72
2022/06/05 00:07:46;;;;;;;;;12.33;12.33;;;;;18.73;74.40;100501.41;5057567;28;45508;-74
2022/06/05 00:10:26;;;;;;;;;13.33;13.33;;;;;18.74;74.81;100502.28;5057586;28;45490;-72
2022/06/05 00:13:13;;;;;;;;;15.00;15.00;;;;;18.73;74.88;100497.91;5057536;28;45539;-73
2022/06/05 00:15:39;;;;;;;;;15.25;14.50;;;;;18.71;75.14;100500.53;5057703;28;45538;-74
2022/06/05 00:18:05;;;;;;;;;15.00;14.67;;;;;18.58;74.89;100478.56;5057540;28;45521;-74
2022/06/05 00:20:31;;;;;;;;;15.00;14.33;;;;;18.65;75.17;100493.50;5057546;28;45362;-71
2022/06/05 00:22:57;;;;;;;;;18.33;17.00;;;;;18.59;75.32;100505.88;5056957;28;46110;-75
2022/06/05 00:25:41;;;;;;;;;18.25;15.75;;;;;18.53;75.78;100505.91;5057044;28;45312;-74
2022/06/05 00:28:06;;;;;;;;;18.00;17.33;;;;;18.53;75.55;100505.91;5057310;28;45421;-70
2022/06/05 00:30:50;;;;;;;;;15.00;14.33;;;;;18.49;75.54;100502.38;5057387;28;45598;-72
2022/06/05 00:33:25;;;;;;;;;18.50;15.50;;;;;18.43;75.95;100505.06;5056995;28;45247;-69
2022/06/05 00:36:02;;;;;;;;;19.00;17.00;;;;;18.42;75.76;100500.63;5056879;28;45328;-74
2022/06/05 00:38:59;;;;;;;;;15.00;15.00;;;;;18.35;75.87;100501.56;5057431;28;45837;-74
2022/06/05 00:41:49;;;;;;;;;16.75;16.25;;;;;18.22;76.66;100506.88;5057152;28;45407;-72
2022/06/05 00:44:18;;;;;;;;;17.75;17.25;;;;;18.19;76.53;100512.16;5055573;28;46655;-71
2022/06/05 00:46:47;;;;;;;;;18.00;18.00;;;;;17.94;76.78;100482.22;5057828;28;45370;-73
2022/06/05 00:49:13;;;;;;;;;16.50;16.00;;;;;18.14;76.85;100516.56;5058846;28;45377;-74
2022/06/05 00:51:39;;;;;;;;;16.50;15.25;;;;;18.14;76.87;100528.91;5059713;28;45465;-74
2022/06/05 00:54:05;;;;;;;;;15.25;15.25;;;;;18.07;76.54;100515.69;5058981;28;46117;-74
2022/06/05 00:56:31;;;;;;;;;15.00;15.00;;;;;18.19;76.60;100533.31;5058829;28;45182;-70
2022/06/05 00:58:57;;;;;;;;;18.00;17.50;;;;;18.23;76.32;100539.47;5058663;28;45465;-73
2022/06/05 01:01:22;;;;;;;;;19.25;17.75;;;;;18.24;76.50;100539.50;5057007;28;45390;-69
2022/06/05 01:03:48;;;;;;;;;17.75;16.75;;;;;18.25;76.55;100537.72;5056671;28;45324;-69
2022/06/05 01:06:14;;;;;;;;;17.50;17.00;;;;;18.23;76.22;100544.78;5057031;28;45433;-69
2022/06/05 01:08:41;;;;;;;;;18.67;15.67;;;;;18.18;76.60;100542.09;5056992;28;45311;-72
2022/06/05 01:11:18;;;;;;;;;15.33;15.33;;;;;18.17;76.63;100540.38;5056883;28;45454;-70
2022/06/05 01:14:25;;;;;;;;;20.25;18.00;;;;;18.19;76.40;100549.19;5056787;28;46190;-70
2022/06/05 01:17:01;;;;;;;;;17.25;16.75;;;;;18.17;76.78;100531.56;5068751;28;45415;-73
2022/06/05 01:20:06;;;;;;;;;17.33;14.67;;;;;18.22;76.47;100551.84;5056545;28;45338;-69
2022/06/05 01:22:55;;;;;;;;;16.25;15.00;;;;;18.24;76.55;100555.34;5056776;28;45413;-70
2022/06/05 01:25:41;;;;;;;;;10.33;9.67;;;;;18.22;75.91;100546.53;5056648;28;45315;-70
2022/06/05 01:28:37;;;;;;;;;15.25;15.00;;;;;18.16;75.86;100551.81;5056308;28;45338;-74
2022/06/05 01:31:24;;;;;;;;;15.00;14.67;;;;;18.16;76.42;100557.09;5055604;28;45381;-71
2022/06/05 01:34:10;;;;;;;;;12.00;11.33;;;;;18.17;74.96;100548.28;5056711;28;45310;-73
2022/06/05 01:37:12;;;;;;;;;15.67;15.67;;;;;18.17;75.18;100555.34;5055979;28;46359;-72
2022/06/05 01:39:42;;;;;;;;;16.33;13.00;;;;;18.17;74.59;100552.72;5056130;28;45639;-73
2022/06/05 01:42:14;;;;;;;;;13.67;12.67;;;;;18.21;74.55;100557.13;5056101;28;45492;-73
2022/06/05 01:44:45;;;;;;;;;12.00;10.67;;;;;18.22;74.16;100562.41;5056331;28;45425;-74
2022/06/05 01:47:25;;;;;;;;;13.33;12.00;;;;;18.18;74.10;100541.25;5057304;28;46098;-73
2022/06/05 01:49:55;;;;;;;;;12.33;11.00;;;;;18.27;74.19;100554.47;5059730;28;45362;-72
2022/06/05 01:52:28;;;;;;;;;12.67;12.67;;;;;18.31;73.59;100558.84;5059655;28;45414;-71
2022/06/05 01:55:05;;;;;;;;;14.00;13.67;;;;;18.33;73.88;100569.44;5059957;28;45242;-70
2022/06/05 01:57:33;;;;;;;;;13.33;11.33;;;;;18.36;74.00;100572.06;5059378;28;45591;-69
2022/06/05 02:00:18;;;;;;;;;11.33;10.67;;;;;18.37;73.92;100571.19;5059453;28;45509;-74
2022/06/05 02:03:05;;;;;;;;;13.00;11.33;;;;;18.39;73.63;100569.44;5059616;28;45477;-73
2022/06/05 02:05:47;;;;;;;;;12.33;12.33;;;;;18.37;73.57;100564.13;5059663;28;45392;-72
2022/06/05 02:08:26;;;;;;;;;12.00;12.00;;;;;18.42;73.69;100567.66;5059621;28;46221;-71
2022/06/05 02:11:02;;;;;;;;;12.00;11.33;;;;;18.43;73.44;100569.41;5059180;28;45373;-73
2022/06/05 02:13:28;;;;;;;;;12.33;11.33;;;;;18.44;73.80;100571.19;5059547;28;45477;-71
2022/06/05 02:15:54;;;;;;;;;11.00;11.00;;;;;18.43;73.94;100579.13;5059708;28;45504;-71
2022/06/05 02:18:20;;;;;;;;;12.33;11.67;;;;;18.26;73.73;100561.53;5059247;28;46044;-73
2022/06/05 02:20:47;;;;;;;;;12.67;12.67;;;;;18.42;73.62;100591.47;5059448;28;45244;-70
2022/06/05 02:23:16;;;;;;;;;13.00;11.00;;;;;18.43;73.56;100592.34;5059252;28;45485;-74
2022/06/05 02:25:42;;;;;;;;;11.00;11.00;;;;;18.22;73.92;100557.13;5059392;28;45315;-74
2022/06/05 02:28:12;;;;;;;;;13.67;11.67;;;;;18.42;74.11;100586.19;5059052;28;45243;-74
2022/06/05 02:30:52;;;;;;;;;12.67;12.67;;;;;18.39;73.96;100580.88;5059198;28;45315;-73
2022/06/05 02:33:28;;;;;;;;;13.00;12.33;;;;;18.41;74.33;100592.34;5059382;28;45156;-69
2022/06/05 02:36:05;;;;;;;;;13.33;12.33;;;;;18.38;74.63;100580.88;5059170;28;45397;-69
2022/06/05 02:38:58;;;;;;;;;12.00;11.00;;;;;18.38;74.42;100581.78;5057515;28;46185;-69
2022/06/05 02:41:32;;;;;;;;;11.00;10.00;;;;;18.32;73.67;100565.88;5058723;28;45175;-70
2022/06/05 02:44:34;;;;;;;;;12.00;11.00;;;;;18.29;73.79;100560.63;5058854;28;45387;-70
2022/06/05 02:47:18;;;;;;;;;12.00;12.00;;;;;18.38;73.98;100570.28;5059107;28;45809;-73
2022/06/05 02:49:48;;;;;;;;;10.00;10.00;;;;;18.39;73.63;100569.44;5058511;28;45508;-70
2022/06/05 02:52:14;;;;;;;;;11.67;10.33;;;;;18.42;73.98;100575.59;5058749;28;45484;-69
2022/06/05 02:54:45;;;;;;;;;12.67;11.67;;;;;18.44;74.44;100579.13;5058773;28;45279;-70
2022/06/05 02:57:13;;;;;;;;;14.00;14.00;;;;;18.45;74.26;100574.69;5059008;28;45225;-69
2022/06/05 02:59:39;;;;;;;;;12.33;11.67;;;;;18.47;74.21;100575.59;5057185;28;45284;-70
2022/06/05 03:04:48;;;;;;;;;14.33;13.00;;;;;18.50;74.83;100580.84;5059058;28;45254;-71
2022/06/05 03:07:14;;;;;;;;;13.00;12.00;;;;;18.41;74.61;100576.47;5058663;28;45211;-69
2022/06/05 03:09:40;;;;;;;;;12.67;12.00;;;;;18.50;74.32;100591.44;5058359;28;45925;-71
2022/06/05 03:12:05;;;;;;;;;14.67;13.67;;;;;18.50;74.22;100586.13;5058386;28;45555;-69
2022/06/05 03:14:31;;;;;;;;;15.67;14.67;;;;;18.51;74.46;100589.69;5058546;28;45793;-71
2022/06/05 03:16:56;;;;;;;;;15.00;15.00;;;;;18.41;74.59;100568.53;5058643;28;45299;-71
2022/06/05 03:19:22;;;;;;;;;16.67;14.33;;;;;18.48;74.96;100594.09;5058770;28;45272;-70
2022/06/05 03:21:47;;;;;;;;;15.33;15.33;;;;;18.38;74.76;100583.53;5058469;28;45304;-70
2022/06/05 03:24:14;;;;;;;;;15.00;14.00;;;;;18.42;74.96;100594.13;5058429;28;45310;-71
2022/06/05 03:26:39;;;;;;;;;14.67;14.00;;;;;18.23;75.03;100565.91;5058448;28;45291;-70
2022/06/05 03:29:07;;;;;;;;;11.75;11.75;;;;;18.38;75.29;100594.09;5057886;28;46034;-70
2022/06/05 03:31:34;;;;;;;;;15.33;13.67;;;;;18.26;74.67;100576.47;5058018;28;45520;-69
2022/06/05 03:33:59;;;;;;;;;13.33;12.33;;;;;18.33;74.93;100593.25;5058254;28;45487;-70
2022/06/05 03:36:25;;;;;;;;;14.33;14.33;;;;;18.30;75.02;100594.09;5058155;28;45382;-72
2022/06/05 03:38:51;;;;;;;;;15.00;14.00;;;;;18.28;75.13;100596.78;5058311;28;45319;-71
2022/06/05 03:41:17;;;;;;;;;16.33;14.33;;;;;18.28;75.23;100593.22;5057866;28;45307;-72
2022/06/05 03:43:44;;;;;;;;;14.50;14.00;;;;;18.29;75.39;100597.66;5058144;28;45608;-71
2022/06/05 03:46:13;;;;;;;;;13.67;13.00;;;;;18.31;75.09;100600.28;5058011;28;45427;-70
2022/06/05 03:48:39;;;;;;;;;14.67;14.00;;;;;18.32;75.15;100602.03;5057775;28;45425;-70
2022/06/05 03:51:13;;;;;;;;;15.00;14.67;;;;;18.32;75.64;100608.19;5057700;28;45488;-70
2022/06/05 03:53:39;;;;;;;;;14.67;14.33;;;;;18.32;75.51;100602.03;5057870;28;45403;-70
2022/06/05 03:56:17;;;;;;;;;14.50;13.75;;;;;18.31;75.53;100598.53;5058007;28;45362;-72
2022/06/05 03:58:42;;;;;;;;;15.00;14.67;;;;;18.32;75.02;100602.91;5057677;28;45394;-70
2022/06/05 04:01:09;;;;;;;;;12.00;12.00;;;;;18.32;75.28;100597.63;5057579;28;45295;-70
2022/06/05 04:03:36;;;;;;;;;15.75;15.25;;;;;18.31;75.26;100601.16;5057422;28;45252;-71
2022/06/05 04:06:06;;;;;;;;;11.33;11.00;;;;;18.31;75.52;100601.16;5057734;28;45219;-69
2022/06/05 04:08:31;;;;;;;;;15.00;12.67;;;;;18.22;75.20;100593.22;5057255;28;46196;-69
2022/06/05 04:10:57;;;;;;;;;17.00;15.67;;;;;18.29;75.58;100603.81;5056943;28;45382;-69
2022/06/05 04:13:22;;;;;;;;;20.25;17.50;;;;;18.21;75.59;100591.50;5057938;28;45426;-72
2022/06/05 04:15:48;;;;;;;;;14.00;13.00;;;;;18.33;75.40;100614.41;5057532;28;45419;-71
2022/06/05 04:18:13;;;;;;;;;16.00;13.67;;;;;18.34;75.51;100610.84;5057250;28;46362;-71
2022/06/05 04:20:39;;;;;;;;;16.00;14.00;;;;;18.35;75.78;100610.00;5057305;28;45460;-69
2022/06/05 04:23:08;;;;;;;;;11.00;11.00;;;;;18.34;74.68;100609.09;5057138;28;45377;-70
2022/06/05 04:25:33;;;;;;;;;21.25;17.25;;;;;18.20;75.15;100593.22;5057665;28;45419;-69
2022/06/05 04:27:59;;;;;;;;;17.75;16.75;;;;;18.28;75.51;100612.63;5057021;28;45430;-71
2022/06/05 04:30:28;;;;;;;;;15.67;15.67;;;;;18.29;75.63;100622.31;5057120;28;45329;-71
2022/06/05 04:32:53;;;;;;;;;18.00;16.67;;;;;18.23;75.50;100606.47;5057723;28;45315;-70
2022/06/05 04:35:19;;;;;;;;;15.75;14.50;;;;;18.31;75.61;100618.81;5057518;28;45319;-70
2022/06/05 04:37:44;;;;;;;;;16.00;14.33;;;;;18.32;75.49;100615.25;5057068;28;45477;-69
2022/06/05 04:40:11;;;;;;;;;15.33;14.00;;;;;18.21;75.41;100605.59;5057152;28;45540;-70
2022/06/05 04:42:36;;;;;;;;;14.00;14.00;;;;;18.31;75.41;100617.03;5057051;28;45423;-70
2022/06/05 04:45:03;;;;;;;;;15.67;15.00;;;;;18.31;75.19;100613.53;5057219;28;45457;-71
2022/06/05 04:47:29;;;;;;;;;15.33;14.33;;;;;18.31;75.68;100614.41;5056916;28;45305;-70
2022/06/05 04:49:55;;;;;;;;;13.67;13.67;;;;;18.29;75.20;100611.75;5057434;28;45423;-70
2022/06/05 04:52:20;;;;;;;;;14.33;13.67;;;;;18.34;74.88;100621.44;5057079;28;45484;-69
2022/06/05 04:54:46;;;;;;;;;15.00;15.00;;;;;18.28;74.86;100606.44;5057183;28;45311;-70
2022/06/05 04:57:12;;;;;;;;;13.67;12.33;;;;;18.37;74.81;100619.69;5056770;28;46035;-72
2022/06/05 04:59:37;;;;;;;;;15.00;14.33;;;;;18.38;75.10;100629.38;5056753;28;45972;-69
2022/06/05 05:02:03;;;;;;;;;14.67;14.00;;;;;18.41;74.80;100624.06;5056695;28;45508;-69
2022/06/05 05:04:29;;;;;;;;;14.00;14.00;;;;;18.44;74.81;100629.38;5056880;28;45427;-69
2022/06/05 05:06:55;;;;;;;;;13.00;12.00;;;;;18.46;74.86;100634.63;5056928;28;46071;-70
2022/06/05 05:09:20;;;;;;;;;15.00;13.00;;;;;18.47;74.57;100632.00;5056900;28;45317;-69
2022/06/05 05:11:46;;;;;;;;;12.33;12.00;;;;;18.49;74.39;100635.53;5056875;28;45248;-72
2022/06/05 05:14:12;;;;;;;;;12.33;12.33;;;;;18.53;74.13;100647.00;5056723;28;45548;-69
2022/06/05 05:16:38;;;;;;;;;13.67;13.00;;;;;18.55;74.22;100634.63;5056493;28;46170;-70
2022/06/05 05:19:04;;;;;;;;;14.00;13.33;;;;;18.60;74.06;100646.13;5056727;28;45367;-70
2022/06/05 05:21:30;;;;;;;;;11.33;11.33;;;;;18.63;74.12;100650.50;5056749;28;45575;-70
2022/06/05 05:23:55;;;;;;;;;14.33;13.33;;;;;18.66;73.87;100654.03;5060627;28;45358;-69
2022/06/05 05:26:32;;;;;;;;;13.00;11.33;;;;;18.70;74.08;100654.88;5059839;28;45539;-70
2022/06/05 05:29:00;;;;;;;;;11.67;11.67;;;;;18.71;73.63;100656.66;5060238;28;45410;-70
2022/06/05 05:31:39;;;;;;;;;13.00;12.67;;;;;18.76;73.39;100660.19;5060412;28;45772;-70
2022/06/05 05:34:07;;;;;;;;;14.00;13.00;;;;;18.63;73.31;100646.09;5060228;28;45342;-69
2022/06/05 05:36:33;;;;;;;;;15.00;15.00;;;;;18.80;73.49;100663.72;5059764;28;45334;-70
2022/06/05 05:44:30;;;;;;;;;14.50;13.75;;;;;18.96;72.60;100646.03;5060322;28;45472;-71
2022/06/05 05:46:56;;;;;;;;;14.67;13.00;;;;;19.07;72.52;100655.72;5059983;28;46089;-70
2022/06/05 05:49:21;;;;;;;;;14.00;12.00;;;;;19.16;72.22;100662.78;5059725;28;45473;-69
2022/06/05 05:51:47;;;;;;;;;14.00;13.00;;;;;19.21;71.54;100655.66;5059795;28;45240;-70
2022/06/05 05:54:13;;;;;;;;;15.33;15.00;;;;;19.19;71.38;100643.34;5060026;28;45374;-70
2022/06/05 05:56:39;;;;;;;;;13.33;13.33;;;;;19.41;71.42;100662.66;5059634;28;45476;-70
2022/06/05 05:59:05;;;;;;;;;14.33;13.33;;;;;19.51;70.88;100669.69;5059508;28;45298;-70
2022/06/05 06:01:31;;;;;;;;;10.67;10.67;;;;;19.60;70.56;100672.28;5059735;28;45377;-71
2022/06/05 06:03:56;;;;;;;;;14.00;13.67;;;;;19.60;70.57;100663.47;5059828;28;45476;-70
2022/06/05 06:06:28;;;;;;;;;13.00;12.67;;;;;19.55;70.58;100633.44;5059374;28;45483;-70
2022/06/05 06:08:54;;;;;;;;;11.67;11.67;;;;;19.87;70.09;100670.41;5059582;28;45278;-69
2022/06/05 06:11:19;;;;;;;;;18.33;17.33;;;;;20.03;69.08;100672.06;5059473;28;45568;-69
2022/06/05 06:13:45;;;;;;;;;12.33;12.33;;;;;20.18;69.14;100678.16;5059621;28;45240;-70
2022/06/05 06:16:11;;;;;;;;;12.33;11.33;;;;;20.16;68.07;100653.41;5059221;28;45403;-71
2022/06/05 06:18:36;;;;;;;;;13.00;13.00;;;;;20.39;68.02;100677.09;5059219;28;45419;-69
2022/06/05 06:21:02;;;;;;;;;14.67;14.67;;;;;20.88;66.41;100667.84;5059696;28;45445;-71
2022/06/05 06:23:27;;;;;;;;;17.00;17.00;;;;;21.22;65.40;100678.94;5059752;28;45254;-71
2022/06/05 06:25:53;;;;;;;;;15.00;13.00;;;;;23.47;60.93;100683.38;5059116;28;46233;-72
2022/06/05 06:28:19;;;;;;;;;13.00;13.00;;;;;24.23;55.88;100678.09;5059077;28;45308;-71
2022/06/05 06:30:45;;;;;;;;;11.00;11.00;;;;;23.95;57.22;100677.88;5059261;28;45352;-71
2022/06/05 06:33:10;;;;;;;;;10.67;10.67;;;;;27.11;50.85;100651.56;5059055;28;45318;-71
2022/06/05 06:35:38;;;;;;;;;9.33;9.00;;;;;30.29;43.05;100685.41;5058661;28;46126;-71
2022/06/05 06:38:04;;;;;;;;;11.67;10.67;;;;;32.34;39.00;100687.06;5059287;28;45298;-70
2022/06/05 06:40:30;;;;;;;;;9.00;9.00;;;;;34.03;36.11;100682.00;5059383;28;45577;-72
2022/06/05 06:42:57;;;;;;;;;8.67;8.67;;;;;35.40;33.29;100687.06;5057590;28;45787;-73
2022/06/05 06:45:23;;;;;;;;;8.00;8.00;;;;;36.65;30.82;100690.56;5058609;28;46032;-70
2022/06/05 06:47:49;;;;;;;;;7.00;7.00;;;;;37.54;28.38;100687.13;5058836;28;45520;-71
2022/06/05 06:50:15;;;;;;;;;6.67;6.67;;;;;38.34;26.87;100694.19;5058878;28;45450;-71
2022/06/05 06:52:41;;;;;;;;;7.00;7.00;;;;;39.14;25.62;100698.25;5059069;28;45433;-72
2022/06/05 06:55:10;;;;;;;;;8.00;7.33;;;;;39.85;25.37;100691.91;5058551;28;45520;-71
2022/06/05 06:57:36;;;;;;;;;7.33;7.33;;;;;40.82;23.30;100717.69;5058642;28;45410;-71
2022/06/05 07:00:04;;;;;;;;;7.33;7.33;;;;;40.47;23.37;100703.59;5059214;28;45284;-72
2022/06/05 07:02:30;;;;;;;;;8.67;7.00;;;;;41.21;22.59;100731.34;5059139;28;45309;-71
2022/06/05 07:04:55;;;;;;;;;8.67;8.67;;;;;40.40;22.79;100715.25;5058490;28;45960;-73
2022/06/05 07:07:21;;;;;;;;;7.67;7.67;;;;;38.62;23.93;100729.19;5058490;28;45215;-73
2022/06/05 07:09:46;;;;;;;;;8.67;8.00;;;;;39.64;23.75;100724.84;5058527;28;45158;-72
2022/06/05 07:12:12;;;;;;;;;8.00;8.00;;;;;38.15;25.40;100732.19;5058748;28;45437;-71
2022/06/05 07:14:37;;;;;;;;;9.00;9.00;;;;;39.90;23.69;100732.56;5058484;28;45298;-73
2022/06/05 07:17:04;;;;;;;;;8.33;8.33;;;;;40.48;22.55;100731.81;5058580;28;45537;-74
2022/06/05 07:19:30;;;;;;;;;7.00;7.00;;;;;38.18;25.20;100726.47;5058612;28;45507;-71
2022/06/05 07:21:55;;;;;;;;;7.00;7.00;;;;;36.42;26.87;100726.69;5058451;28;45453;-71
2022/06/05 07:24:21;;;;;;;;;6.33;6.00;;;;;38.71;24.71;100737.47;5058186;28;46081;-72
2022/06/05 07:26:48;;;;;;;;;7.00;7.00;;;;;41.52;21.90;100746.50;5058215;28;45500;-75
2022/06/05 07:29:14;;;;;;;;;9.67;9.67;;;;;43.24;19.81;100747.47;5058111;28;45434;-72
2022/06/05 07:31:40;;;;;;;;;7.33;7.00;;;;;44.50;18.36;100756.97;5058080;28;45437;-75
2022/06/05 07:34:08;;;;;;;;;7.00;6.67;;;;;45.71;17.64;100757.00;5058420;28;45231;-73
2022/06/05 07:36:34;;;;;;;;;9.00;7.67;;;;;44.08;18.62;100729.31;5058390;28;45474;-73
2022/06/05 07:39:02;;;;;;;;;9.00;9.00;;;;;40.89;21.18;100741.63;5058112;28;45234;-71
2022/06/05 07:41:33;;;;;;;;;7.33;7.33;;;;;38.34;25.09;100737.84;5058084;28;45325;-72
2022/06/05 07:44:00;;;;;;;;;9.00;8.00;;;;;36.58;26.27;100744.59;5057416;28;45992;-72
2022/06/05 07:46:27;;;;;;;;;9.00;8.00;;;;;35.07;28.56;100733.75;5056887;28;45348;-71
2022/06/05 07:48:52;;;;;;;;;9.00;9.00;;;;;33.94;29.86;100753.06;5057422;28;45494;-71
2022/06/05 07:54:30;;;;;;;;;8.33;8.33;;;;;31.72;33.14;100755.38;5058001;28;45721;-73
2022/06/05 07:56:59;;;;;;;;;9.67;8.00;;;;;30.81;34.83;100746.63;5057258;28;45545;-71
2022/06/05 07:59:27;;;;;;;;;10.00;9.00;;;;;30.07;35.88;100761.03;5057557;28;45490;-71
2022/06/05 08:01:53;;;;;;;;;11.00;10.33;;;;;29.47;37.29;100762.94;5057829;28;45239;-70
2022/06/05 08:04:19;;;;;;;;;11.33;10.00;;;;;29.09;38.42;100760.97;5057048;28;45920;-70
2022/06/05 08:06:44;;;;;;;;;10.33;9.67;;;;;28.84;39.09;100765.66;5057195;28;45387;-69
2022/06/05 08:09:10;;;;;;;;;10.33;10.00;;;;;28.64;39.40;100759.31;5057279;28;45223;-71
2022/06/05 08:11:36;;;;;;;;;10.00;10.00;;;;;28.49;39.65;100760.81;5057873;28;45362;-71
2022/06/05 08:14:03;;;;;;;;;10.33;10.33;;;;;28.47;40.02;100753.72;5057088;28;45424;-72
2022/06/05 08:16:29;;;;;;;;;10.67;10.00;;;;;28.84;39.57;100760.28;5056825;28;45480;-70
2022/06/05 08:18:55;;;;;;;;;8.33;8.33;;;;;30.00;37.21;100756.00;5057289;28;45335;-71
2022/06/05 08:21:24;;;;;;;;;10.00;10.00;;;;;31.59;34.44;100751.59;5057092;28;45411;-70
2022/06/05 08:23:50;;;;;;;;;9.67;9.33;;;;;33.74;31.08;100748.94;5056778;28;45460;-71
2022/06/05 08:26:16;;;;;;;;;8.67;8.67;;;;;33.15;32.01;100762.50;5056774;28;45365;-70
2022/06/05 08:28:41;;;;;;;;;6.33;6.33;;;;;32.35;31.89;100754.56;5057175;28;45357;-72
2022/06/05 08:31:08;;;;;;;;;8.00;7.67;;;;;31.88;32.51;100761.66;5057507;28;45349;-72
2022/06/05 08:33:34;;;;;;;;;7.67;7.67;;;;;31.84;33.55;100759.22;5056723;28;45334;-72
2022/06/05 08:36:00;;;;;;;;;10.33;9.33;;;;;31.92;33.49;100757.81;5057303;28;45959;-70
2022/06/05 08:41:28;;;;;;;;;7.00;7.00;;;;;32.61;31.55;100761.19;5056644;28;45220;-70
2022/06/05 08:44:05;;;;;;;;;9.33;9.00;;;;;32.23;32.56;100747.13;5055748;28;45324;-70
2022/06/05 08:46:56;;;;;;;;;11.33;11.00;;;;;33.35;31.92;100766.72;5055930;28;45485;-70
2022/06/05 08:49:31;;;;;;;;;10.00;9.00;;;;;37.16;27.04;100761.91;5051564;28;45345;-70
2022/06/05 08:51:56;;;;;;;;;8.00;8.00;;;;;38.22;25.44;100762.56;5056585;28;45366;-71
2022/06/05 08:54:42;;;;;;;;;8.00;8.00;;;;;39.66;23.59;100769.31;5056432;28;46112;-70
2022/06/05 08:57:22;;;;;;;;;7.00;7.00;;;;;42.48;20.96;100756.25;5059303;28;45490;-74
2022/06/05 09:00:17;;;;;;;;;6.67;6.67;;;;;44.23;20.01;100764.44;5060062;28;45417;-73
2022/06/05 09:03:08;;;;;;;;;8.00;6.33;;;;;45.65;16.80;100777.91;5059886;28;46046;-71
2022/06/05 09:05:45;;;;;;;;;7.00;6.00;;;;;46.82;15.45;100768.81;5037778;28;45553;-72
2022/06/05 09:08:15;;;;;;;;;7.33;6.33;;;;;47.50;15.03;100769.66;5059962;28;45479;-73
2022/06/05 09:10:54;;;;;;;;;6.67;6.67;;;;;45.44;17.45;100763.81;5060049;28;45436;-75
2022/06/05 09:13:35;;;;;;;;;6.67;6.67;;;;;43.09;19.10;100765.56;5059944;28;45280;-72
2022/06/05 09:16:11;;;;;;;;;7.00;7.00;;;;;41.46;20.55;100766.28;5059464;28;45361;-75
2022/06/05 09:18:43;;;;;;;;;6.67;6.67;;;;;40.77;20.88;100767.44;5059882;28;45279;-71
2022/06/05 09:21:33;;;;;;;;;6.67;6.67;;;;;39.07;23.21;100764.50;5059922;28;45349;-72
2022/06/05 09:24:15;;;;;;;;;7.33;7.00;;;;;37.91;24.09;100773.25;5059936;28;45556;-71
2022/06/05 09:27:08;;;;;;;;;7.00;7.00;;;;;37.18;25.60;100775.41;5059510;28;45606;-72
2022/06/05 09:29:59;;;;;;;;;7.00;6.67;;;;;36.06;26.43;100765.66;5059636;28;45536;-71
2022/06/05 09:32:52;;;;;;;;;9.00;8.33;;;;;35.25;27.93;100765.06;5059433;28;45641;-73
2022/06/05 09:35:28;;;;;;;;;8.33;8.00;;;;;35.65;27.88;100766.78;5059452;28;45491;-71
2022/06/05 09:38:02;;;;;;;;;7.00;7.00;;;;;37.64;24.95;100760.84;5059169;28;46164;-73
2022/06/05 09:40:33;;;;;;;;;8.00;6.00;;;;;37.67;25.06;100770.66;5059152;28;45279;-71
2022/06/05 09:43:16;;;;;;;;;8.00;7.00;;;;;37.53;25.31;100769.03;5059071;28;45497;-73
2022/06/05 09:46:24;;;;;;;;;8.00;7.00;;;;;36.74;26.49;100764.22;5059779;28;45234;-71
2022/06/05 09:49:02;;;;;;;;;7.67;7.00;;;;;37.59;25.49;100763.97;5059185;28;46114;-74
2022/06/05 09:51:28;;;;;;;;;7.00;7.00;;;;;37.64;25.04;100766.31;5058766;28;45497;-72
2022/06/05 09:54:06;;;;;;;;;8.00;7.67;;;;;37.94;25.14;100767.53;5059355;28;45457;-70
2022/06/05 09:59:35;;;;;;;;;6.33;5.33;;;;;40.56;21.81;100770.28;5058590;28;45769;-71
2022/06/05 10:02:04;;;;;;;;;6.67;6.33;;;;;41.81;20.16;100772.97;5058770;28;45327;-71
2022/06/05 10:04:32;;;;;;;;;8.00;7.33;;;;;41.21;21.09;100751.38;5059044;28;45459;-73
2022/06/05 10:07:13;;;;;;;;;5.33;5.33;;;;;41.83;20.85;100778.31;5059043;28;45501;-71
2022/06/05 10:09:45;;;;;;;;;5.00;5.00;;;;;43.37;19.38;100771.78;5058485;28;46247;-73
2022/06/05 10:12:28;;;;;;;;;7.00;7.00;;;;;43.95;17.99;100772.09;5059065;28;45422;-73
2022/06/05 10:15:46;;;;;;;;;6.00;5.67;;;;;43.45;18.83;100770.97;5059318;28;45334;-71
2022/06/05 10:18:21;;;;;;;;;7.00;7.00;;;;;42.48;19.83;100768.13;5057162;28;45284;-71
2022/06/05 10:21:20;;;;;;;;;5.67;5.67;;;;;40.38;21.46;100769.28;5058712;28;45427;-70
2022/06/05 10:24:09;;;;;;;;;5.67;5.67;;;;;39.89;22.23;100774.59;5050730;28;45339;-70
2022/06/05 10:26:37;;;;;;;;;8.33;7.67;;;;;40.75;21.17;100766.72;5058825;28;45378;-71
2022/06/05 10:29:26;;;;;;;;;6.33;6.00;;;;;42.06;19.92;100770.53;5058203;28;45409;-71
2022/06/05 10:31:58;;;;;;;;;5.33;5.33;;;;;43.10;19.00;100778.31;5057419;28;45617;-72
2022/06/05 10:34:47;;;;;;;;;5.67;5.00;;;;;44.31;18.43;100775.47;5058466;28;45550;-72
2022/06/05 10:37:15;;;;;;;;;5.00;5.00;;;;;44.73;17.87;100777.31;5052267;28;45410;-75
2022/06/05 10:39:46;;;;;;;;;5.33;5.33;;;;;44.37;18.12;100768.44;5058688;28;45479;-72
2022/06/05 10:42:21;;;;;;;;;3.67;3.67;;;;;42.58;18.85;100778.16;5058492;28;46368;-72
2022/06/05 10:45:10;;;;;;;;;6.67;6.33;;;;;41.09;20.23;100778.06;5058574;28;45808;-72
2022/06/05 10:47:48;;;;;;;;;7.00;7.00;;;;;41.43;21.00;100782.22;5052916;28;45509;-72
2022/06/05 10:50:41;;;;;;;;;5.00;5.00;;;;;41.68;20.28;100786.16;5058950;28;45497;-71
2022/06/05 10:53:25;;;;;;;;;7.00;6.33;;;;;40.62;21.71;100782.53;5058230;28;45520;-70
2022/06/05 10:56:15;;;;;;;;;6.00;6.00;;;;;39.39;22.62;100775.31;5058346;28;45268;-73
2022/06/05 10:59:18;;;;;;;;;7.33;6.00;;;;;38.28;23.21;100782.03;5058065;28;45464;-70
2022/06/05 11:02:27;;;;;;;;;7.00;7.00;;;;;38.43;23.54;100782.59;5058827;28;45280;-71
2022/06/05 11:05:01;;;;;;;;;5.67;5.00;;;;;38.81;23.46;100783.09;5038162;28;45435;-70
2022/06/05 11:08:00;;;;;;;;;6.00;6.00;;;;;37.79;24.44;100796.94;5058117;28;45387;-70
2022/06/05 11:13:40;;;;;;;;;6.00;6.00;;;;;36.58;25.75;100799.03;5058294;28;45386;-71
2022/06/05 11:16:47;;;;;;;;;6.33;5.33;;;;;36.13;26.43;100801.44;5058003;28;45379;-70
2022/06/05 11:19:34;;;;;;;;;7.00;6.00;;;;;35.58;27.34;100799.00;5014815;28;45536;-73
2022/06/05 11:22:04;;;;;;;;;7.33;7.00;;;;;35.23;27.55;100791.47;5055222;28;45409;-71
2022/06/05 11:24:35;;;;;;;;;6.33;6.33;;;;;34.87;28.08;100797.56;5058446;28;45437;-71
2022/06/05 11:27:32;;;;;;;;;7.33;7.00;;;;;34.68;28.08;100792.53;5057840;28;45306;-71
2022/06/05 11:30:19;;;;;;;;;6.00;5.33;;;;;34.25;28.68;100781.78;5041565;28;45366;-70
2022/06/05 11:32:52;;;;;;;;;8.00;7.00;;;;;34.11;29.61;100779.09;5057845;28;45531;-70
2022/06/05 11:35:50;;;;;;;;;5.33;5.00;;;;;33.96;30.51;100778.22;5058244;28;45503;-72
2022/06/05 11:38:42;;;;;;;;;7.00;7.00;;;;;33.58;30.14;100781.50;5034552;28;45558;-71
2022/06/05 11:41:29;;;;;;;;;8.00;8.00;;;;;33.12;30.80;100778.94;5057715;28;45338;-70
2022/06/05 11:44:21;;;;;;;;;6.67;6.67;;;;;32.79;31.45;100783.56;5057580;28;45275;-70
2022/06/05 11:47:03;;;;;;;;;7.00;6.33;;;;;32.47;31.88;100778.19;5052575;28;45562;-69
2022/06/05 11:50:02;;;;;;;;;8.67;8.33;;;;;32.54;32.10;100784.09;5056832;28;46227;-70
2022/06/05 11:52:43;;;;;;;;;6.33;6.33;;;;;32.52;31.64;100786.00;5057366;28;45310;-70
2022/06/05 11:55:30;;;;;;;;;6.00;6.00;;;;;32.40;32.34;100784.88;5057627;28;45470;-70
2022/06/05 11:58:05;;;;;;;;;6.67;6.67;;;;;32.20;32.57;100794.13;5057173;28;45292;-70
2022/06/05 12:00:34;;;;;;;;;7.00;7.00;;;;;32.17;32.84;100791.63;5056912;28;45947;-70
2022/06/05 12:03:18;;;;;;;;;6.00;6.00;;;;;32.27;32.58;100787.44;5056694;28;45643;-70
2022/06/05 12:06:05;;;;;;;;;8.33;7.67;;;;;32.01;32.98;100794.31;5057198;28;45330;-69